Fairchild Air Force Base
KSKA : now visible

Airfield :











YOU CAN JOIN US ON...

 
LOGIN :

Register | Disclaimer

   EN    FR    IT 

 









Legend :    VFR   Marginal VFR   IFR   Intensive IFR   Very Intensive IFR
Visi :
Ceiling :
>= 8 km
>= 3000ft
5 to 8 km
1000 to 3000 ft
1500m to 5 km
500 to 1000 ft
800 to 1500m
200 to 500 ft
< 800m
< 200 ft
Symbols :   Thunderstorms  Fog  Heavy snow  Heavy precipitations  Wind > 20 kt






- Airport Elevation : 2461 ft


KSKA - Fairchild Air Force Base

CURRENT METAR :
  • 211958Z AUTO 26004KT 10SM CLR 19/M04 A2998 RMK AO2 SLP156 T01921037 $

EXPIRED METARs :
  • 211858Z AUTO 00000KT 10SM CLR 18/M04 A3001 RMK AO2 SLP167 T01781042 $
  • 211758Z AUTO 00000KT 10SM CLR 16/M05 A3004 RMK AO2 SLP175 T01591047 10159 20002 57010 $

TAF TAF KSKA
Valid from the 21 at 19:00 until the 23 at 01:00 UTC


211900Z 2119/2301 27006KT 9999 SKC QNH2996INS
BECMG 2120/2121 24012KT 9999 SKC QNH2982INS
BECMG 2202/2203 19006KT 9999 FEW100 SCT150 QNH2971INS WND VRB06KT AFT 2210
BECMG 2214/2215 06012KT 9999 FEW040 BKN060 BKN100 610609 QNH2973INS
BECMG 2220/2221 03015G25KT 9999 -SHRA VCTS BKN040 BKN080 610409 QNH2972INS TX21/2122Z TN06/2213Z
KZSE FIR / North America



MET'MAP, your aeronautical weather chart ! - Copyright ORBIFLY December 2007 - Disclaimer

ORBIFLY MET'MAP TEAM :

Programming & Development : Alexandra Zaïnal
Concept & original design : Baudouin d'Aumeries
Assistance for programming : Marc-Olivier Méhu
Technical & hardware support : Manuel Goepfert

Contact : metmap@orbifly.com




SOURCES & CREDITS :

   NOAA       Earth
Advisory